sensor_id;sensor_type;location;lat;lon;timestamp;P1;durP1;ratioP1;P2;durP2;ratioP2
36963;SDS011;22878;48.616;35.326;2022-08-01T00:01:08;7.30;;;3.77;;
36963;SDS011;22878;48.616;35.326;2022-08-01T00:03:34;14.30;;;3.85;;
36963;SDS011;22878;48.616;35.326;2022-08-01T00:06:00;13.08;;;3.90;;
36963;SDS011;22878;48.616;35.326;2022-08-01T00:08:26;12.65;;;3.80;;
36963;SDS011;22878;48.616;35.326;2022-08-01T00:10:52;10.38;;;3.62;;
36963;SDS011;22878;48.616;35.326;2022-08-01T00:13:18;15.00;;;4.15;;
36963;SDS011;22878;48.616;35.326;2022-08-01T00:15:44;13.93;;;3.72;;
36963;SDS011;22878;48.616;35.326;2022-08-01T00:18:10;10.55;;;4.03;;
36963;SDS011;22878;48.616;35.326;2022-08-01T00:20:36;9.43;;;3.72;;
36963;SDS011;22878;48.616;35.326;2022-08-01T00:23:03;13.32;;;4.35;;
36963;SDS011;22878;48.616;35.326;2022-08-01T00:25:30;10.85;;;3.95;;
36963;SDS011;22878;48.616;35.326;2022-08-01T00:27:56;11.75;;;4.20;;
36963;SDS011;22878;48.616;35.326;2022-08-01T00:30:22;13.98;;;4.65;;
36963;SDS011;22878;48.616;35.326;2022-08-01T00:32:49;10.08;;;4.08;;
36963;SDS011;22878;48.616;35.326;2022-08-01T00:35:15;13.38;;;4.47;;
36963;SDS011;22878;48.616;35.326;2022-08-01T00:37:41;12.05;;;4.28;;
36963;SDS011;22878;48.616;35.326;2022-08-01T00:40:09;9.38;;;4.20;;
36963;SDS011;22878;48.616;35.326;2022-08-01T00:42:35;15.45;;;4.60;;
36963;SDS011;22878;48.616;35.326;2022-08-01T00:45:01;10.90;;;4.22;;
36963;SDS011;22878;48.616;35.326;2022-08-01T00:47:27;10.05;;;4.47;;
36963;SDS011;22878;48.616;35.326;2022-08-01T00:49:53;14.55;;;4.37;;
36963;SDS011;22878;48.616;35.326;2022-08-01T00:52:19;10.05;;;4.05;;
36963;SDS011;22878;48.616;35.326;2022-08-01T00:54:45;8.55;;;4.17;;
36963;SDS011;22878;48.616;35.326;2022-08-01T00:57:12;17.90;;;4.50;;
36963;SDS011;22878;48.616;35.326;2022-08-01T00:59:38;9.68;;;4.60;;
36963;SDS011;22878;48.616;35.326;2022-08-01T01:02:06;18.57;;;5.12;;
36963;SDS011;22878;48.616;35.326;2022-08-01T01:04:32;20.97;;;6.05;;
36963;SDS011;22878;48.616;35.326;2022-08-01T01:07:09;18.07;;;5.78;;
36963;SDS011;22878;48.616;35.326;2022-08-01T01:09:56;20.23;;;5.28;;
36963;SDS011;22878;48.616;35.326;2022-08-01T01:12:50;15.40;;;5.17;;
36963;SDS011;22878;48.616;35.326;2022-08-01T01:15:34;13.75;;;5.40;;
36963;SDS011;22878;48.616;35.326;2022-08-01T01:29:49;17.67;;;5.95;;
36963;SDS011;22878;48.616;35.326;2022-08-01T01:32:22;15.53;;;5.53;;
36963;SDS011;22878;48.616;35.326;2022-08-01T01:34:59;15.38;;;6.15;;
36963;SDS011;22878;48.616;35.326;2022-08-01T01:37:30;16.75;;;5.50;;
36963;SDS011;22878;48.616;35.326;2022-08-01T01:39:58;16.67;;;6.00;;
36963;SDS011;22878;48.616;35.326;2022-08-01T01:42:26;14.65;;;5.72;;
36963;SDS011;22878;48.616;35.326;2022-08-01T01:44:53;13.43;;;5.67;;
36963;SDS011;22878;48.616;35.326;2022-08-01T01:47:20;16.20;;;6.25;;
36963;SDS011;22878;48.616;35.326;2022-08-01T01:49:48;17.05;;;5.70;;
36963;SDS011;22878;48.616;35.326;2022-08-01T01:52:17;21.40;;;6.50;;
36963;SDS011;22878;48.616;35.326;2022-08-01T01:54:45;17.37;;;6.30;;
36963;SDS011;22878;48.616;35.326;2022-08-01T01:57:15;19.12;;;5.97;;
36963;SDS011;22878;48.616;35.326;2022-08-01T01:59:42;15.38;;;5.20;;
36963;SDS011;22878;48.616;35.326;2022-08-01T02:02:12;15.70;;;5.20;;
36963;SDS011;22878;48.616;35.326;2022-08-01T02:04:43;16.93;;;5.87;;
36963;SDS011;22878;48.616;35.326;2022-08-01T02:07:12;16.37;;;5.60;;
36963;SDS011;22878;48.616;35.326;2022-08-01T02:09:42;17.35;;;6.53;;
36963;SDS011;22878;48.616;35.326;2022-08-01T02:12:11;20.88;;;7.15;;
36963;SDS011;22878;48.616;35.326;2022-08-01T02:14:38;19.07;;;7.72;;
36963;SDS011;22878;48.616;35.326;2022-08-01T02:17:06;22.05;;;7.47;;
36963;SDS011;22878;48.616;35.326;2022-08-01T02:19:36;18.62;;;7.42;;
36963;SDS011;22878;48.616;35.326;2022-08-01T02:24:37;24.75;;;7.92;;
36963;SDS011;22878;48.616;35.326;2022-08-01T02:27:09;19.37;;;6.60;;
36963;SDS011;22878;48.616;35.326;2022-08-01T02:29:43;18.65;;;7.45;;
36963;SDS011;22878;48.616;35.326;2022-08-01T02:32:14;25.65;;;7.47;;
36963;SDS011;22878;48.616;35.326;2022-08-01T02:34:45;23.95;;;7.05;;
36963;SDS011;22878;48.616;35.326;2022-08-01T02:37:15;17.02;;;6.70;;
36963;SDS011;22878;48.616;35.326;2022-08-01T02:39:43;21.37;;;6.42;;
36963;SDS011;22878;48.616;35.326;2022-08-01T02:42:13;25.62;;;8.85;;
36963;SDS011;22878;48.616;35.326;2022-08-01T02:44:41;26.60;;;9.35;;
36963;SDS011;22878;48.616;35.326;2022-08-01T02:47:09;27.75;;;8.15;;
36963;SDS011;22878;48.616;35.326;2022-08-01T02:49:37;20.80;;;7.95;;
36963;SDS011;22878;48.616;35.326;2022-08-01T02:54:45;20.57;;;7.70;;
36963;SDS011;22878;48.616;35.326;2022-08-01T02:57:16;15.58;;;5.80;;
36963;SDS011;22878;48.616;35.326;2022-08-01T02:59:45;18.98;;;5.75;;
36963;SDS011;22878;48.616;35.326;2022-08-01T03:02:13;15.80;;;5.60;;
36963;SDS011;22878;48.616;35.326;2022-08-01T03:04:43;12.37;;;4.67;;
36963;SDS011;22878;48.616;35.326;2022-08-01T03:07:12;18.30;;;4.70;;
36963;SDS011;22878;48.616;35.326;2022-08-01T03:09:44;15.25;;;4.58;;
36963;SDS011;22878;48.616;35.326;2022-08-01T03:12:13;49.42;;;5.95;;
36963;SDS011;22878;48.616;35.326;2022-08-01T03:14:49;18.07;;;4.75;;
36963;SDS011;22878;48.616;35.326;2022-08-01T03:17:18;12.00;;;4.25;;
36963;SDS011;22878;48.616;35.326;2022-08-01T03:19:53;13.58;;;3.45;;
36963;SDS011;22878;48.616;35.326;2022-08-01T03:22:22;11.18;;;3.87;;
36963;SDS011;22878;48.616;35.326;2022-08-01T03:24:51;12.00;;;4.17;;
36963;SDS011;22878;48.616;35.326;2022-08-01T03:27:19;9.80;;;3.62;;
36963;SDS011;22878;48.616;35.326;2022-08-01T03:29:51;20.62;;;6.22;;
36963;SDS011;22878;48.616;35.326;2022-08-01T03:32:20;65.62;;;21.85;;
36963;SDS011;22878;48.616;35.326;2022-08-01T03:34:48;90.70;;;30.40;;
36963;SDS011;22878;48.616;35.326;2022-08-01T03:37:21;80.05;;;25.72;;
36963;SDS011;22878;48.616;35.326;2022-08-01T03:39:57;45.03;;;14.65;;
36963;SDS011;22878;48.616;35.326;2022-08-01T03:45:07;20.25;;;7.12;;
36963;SDS011;22878;48.616;35.326;2022-08-01T03:47:37;88.70;;;13.65;;
36963;SDS011;22878;48.616;35.326;2022-08-01T03:50:08;42.88;;;11.95;;
36963;SDS011;22878;48.616;35.326;2022-08-01T03:52:38;30.12;;;9.63;;
36963;SDS011;22878;48.616;35.326;2022-08-01T03:55:07;26.65;;;8.75;;
36963;SDS011;22878;48.616;35.326;2022-08-01T03:57:36;19.42;;;6.60;;
36963;SDS011;22878;48.616;35.326;2022-08-01T04:00:05;23.80;;;8.43;;
36963;SDS011;22878;48.616;35.326;2022-08-01T04:02:34;23.55;;;7.80;;
36963;SDS011;22878;48.616;35.326;2022-08-01T04:05:00;25.02;;;8.23;;
36963;SDS011;22878;48.616;35.326;2022-08-01T04:07:31;30.68;;;8.00;;
36963;SDS011;22878;48.616;35.326;2022-08-01T04:10:00;14.33;;;5.58;;
36963;SDS011;22878;48.616;35.326;2022-08-01T04:12:26;13.10;;;4.25;;
36963;SDS011;22878;48.616;35.326;2022-08-01T04:14:52;21.37;;;4.30;;
36963;SDS011;22878;48.616;35.326;2022-08-01T04:17:18;9.70;;;4.00;;
36963;SDS011;22878;48.616;35.326;2022-08-01T04:19:44;13.28;;;3.25;;
36963;SDS011;22878;48.616;35.326;2022-08-01T04:22:11;10.95;;;3.67;;
36963;SDS011;22878;48.616;35.326;2022-08-01T04:24:40;13.28;;;3.92;;
36963;SDS011;22878;48.616;35.326;2022-08-01T04:27:11;12.85;;;4.15;;
36963;SDS011;22878;48.616;35.326;2022-08-01T04:29:40;15.78;;;3.77;;
36963;SDS011;22878;48.616;35.326;2022-08-01T04:32:08;11.12;;;3.98;;
36963;SDS011;22878;48.616;35.326;2022-08-01T04:34:38;10.65;;;3.95;;
36963;SDS011;22878;48.616;35.326;2022-08-01T04:37:11;12.50;;;3.67;;
36963;SDS011;22878;48.616;35.326;2022-08-01T04:39:41;11.00;;;4.30;;
36963;SDS011;22878;48.616;35.326;2022-08-01T04:42:09;12.40;;;3.92;;
36963;SDS011;22878;48.616;35.326;2022-08-01T04:44:37;10.93;;;4.08;;
36963;SDS011;22878;48.616;35.326;2022-08-01T04:47:04;13.03;;;4.05;;
36963;SDS011;22878;48.616;35.326;2022-08-01T04:49:33;13.50;;;4.67;;
36963;SDS011;22878;48.616;35.326;2022-08-01T04:52:00;11.38;;;3.67;;
36963;SDS011;22878;48.616;35.326;2022-08-01T04:54:27;21.77;;;5.25;;
36963;SDS011;22878;48.616;35.326;2022-08-01T04:56:55;16.45;;;4.35;;
36963;SDS011;22878;48.616;35.326;2022-08-01T04:59:28;11.12;;;4.40;;
36963;SDS011;22878;48.616;35.326;2022-08-01T05:02:05;21.00;;;4.50;;
36963;SDS011;22878;48.616;35.326;2022-08-01T05:04:34;18.20;;;4.58;;
36963;SDS011;22878;48.616;35.326;2022-08-01T05:07:02;9.70;;;4.25;;
36963;SDS011;22878;48.616;35.326;2022-08-01T05:09:28;8.48;;;3.90;;
36963;SDS011;22878;48.616;35.326;2022-08-01T05:11:56;11.30;;;4.33;;
36963;SDS011;22878;48.616;35.326;2022-08-01T05:14:27;14.25;;;4.33;;
36963;SDS011;22878;48.616;35.326;2022-08-01T05:16:56;11.85;;;3.95;;
36963;SDS011;22878;48.616;35.326;2022-08-01T05:19:22;11.57;;;4.50;;
36963;SDS011;22878;48.616;35.326;2022-08-01T05:21:48;12.25;;;4.10;;
36963;SDS011;22878;48.616;35.326;2022-08-01T05:24:14;8.78;;;4.25;;
36963;SDS011;22878;48.616;35.326;2022-08-01T05:26:40;20.95;;;4.78;;
36963;SDS011;22878;48.616;35.326;2022-08-01T05:29:06;15.10;;;4.95;;
36963;SDS011;22878;48.616;35.326;2022-08-01T05:31:32;16.50;;;4.65;;
36963;SDS011;22878;48.616;35.326;2022-08-01T05:36:27;15.72;;;4.72;;
36963;SDS011;22878;48.616;35.326;2022-08-01T05:38:54;12.98;;;4.37;;
36963;SDS011;22878;48.616;35.326;2022-08-01T05:41:20;10.25;;;4.10;;
36963;SDS011;22878;48.616;35.326;2022-08-01T05:43:46;13.98;;;4.65;;
36963;SDS011;22878;48.616;35.326;2022-08-01T05:46:13;12.37;;;4.45;;
36963;SDS011;22878;48.616;35.326;2022-08-01T05:48:39;14.15;;;4.97;;
36963;SDS011;22878;48.616;35.326;2022-08-01T05:51:05;17.20;;;5.28;;
36963;SDS011;22878;48.616;35.326;2022-08-01T05:53:31;13.35;;;5.22;;
36963;SDS011;22878;48.616;35.326;2022-08-01T05:55:59;15.95;;;4.97;;
36963;SDS011;22878;48.616;35.326;2022-08-01T05:58:27;14.83;;;4.95;;
36963;SDS011;22878;48.616;35.326;2022-08-01T06:00:53;11.63;;;5.00;;
36963;SDS011;22878;48.616;35.326;2022-08-01T06:03:19;12.15;;;4.80;;
36963;SDS011;22878;48.616;35.326;2022-08-01T06:05:45;15.72;;;5.33;;
36963;SDS011;22878;48.616;35.326;2022-08-01T06:08:11;8.68;;;5.05;;
36963;SDS011;22878;48.616;35.326;2022-08-01T06:10:37;12.53;;;5.15;;
36963;SDS011;22878;48.616;35.326;2022-08-01T06:13:05;15.55;;;5.47;;
36963;SDS011;22878;48.616;35.326;2022-08-01T06:15:31;13.80;;;5.40;;
36963;SDS011;22878;48.616;35.326;2022-08-01T06:17:58;10.65;;;5.12;;
36963;SDS011;22878;48.616;35.326;2022-08-01T06:20:29;13.70;;;5.75;;
36963;SDS011;22878;48.616;35.326;2022-08-01T06:22:55;15.45;;;5.95;;
36963;SDS011;22878;48.616;35.326;2022-08-01T06:25:22;17.30;;;5.83;;
36963;SDS011;22878;48.616;35.326;2022-08-01T06:30:16;15.58;;;5.60;;
36963;SDS011;22878;48.616;35.326;2022-08-01T06:32:48;20.35;;;5.35;;
36963;SDS011;22878;48.616;35.326;2022-08-01T06:35:14;12.00;;;5.47;;
36963;SDS011;22878;48.616;35.326;2022-08-01T06:37:41;12.43;;;5.53;;
36963;SDS011;22878;48.616;35.326;2022-08-01T06:40:12;14.80;;;5.80;;
36963;SDS011;22878;48.616;35.326;2022-08-01T06:42:39;10.88;;;5.53;;
36963;SDS011;22878;48.616;35.326;2022-08-01T06:45:05;13.32;;;5.72;;
36963;SDS011;22878;48.616;35.326;2022-08-01T06:47:36;11.83;;;5.83;;
36963;SDS011;22878;48.616;35.326;2022-08-01T06:50:04;11.57;;;5.25;;
36963;SDS011;22878;48.616;35.326;2022-08-01T06:52:32;14.38;;;6.10;;
36963;SDS011;22878;48.616;35.326;2022-08-01T06:54:59;10.13;;;5.22;;
36963;SDS011;22878;48.616;35.326;2022-08-01T06:57:25;11.83;;;5.78;;
36963;SDS011;22878;48.616;35.326;2022-08-01T06:59:51;16.85;;;6.03;;
36963;SDS011;22878;48.616;35.326;2022-08-01T07:02:20;17.10;;;6.40;;
36963;SDS011;22878;48.616;35.326;2022-08-01T07:04:48;12.10;;;5.85;;
36963;SDS011;22878;48.616;35.326;2022-08-01T07:07:14;12.78;;;5.53;;
36963;SDS011;22878;48.616;35.326;2022-08-01T07:09:40;15.60;;;6.12;;
36963;SDS011;22878;48.616;35.326;2022-08-01T07:12:07;10.88;;;5.83;;
36963;SDS011;22878;48.616;35.326;2022-08-01T07:14:34;16.82;;;6.37;;
36963;SDS011;22878;48.616;35.326;2022-08-01T07:17:01;13.40;;;6.28;;
36963;SDS011;22878;48.616;35.326;2022-08-01T07:19:27;14.00;;;6.40;;
36963;SDS011;22878;48.616;35.326;2022-08-01T07:21:53;13.20;;;6.60;;
36963;SDS011;22878;48.616;35.326;2022-08-01T07:24:19;15.53;;;6.33;;
36963;SDS011;22878;48.616;35.326;2022-08-01T07:26:48;10.05;;;5.75;;
36963;SDS011;22878;48.616;35.326;2022-08-01T07:29:14;12.25;;;5.60;;
36963;SDS011;22878;48.616;35.326;2022-08-01T07:31:40;11.88;;;5.97;;
36963;SDS011;22878;48.616;35.326;2022-08-01T07:34:07;12.95;;;5.72;;
36963;SDS011;22878;48.616;35.326;2022-08-01T07:36:33;13.60;;;6.05;;
36963;SDS011;22878;48.616;35.326;2022-08-01T07:39:00;15.18;;;6.00;;
36963;SDS011;22878;48.616;35.326;2022-08-01T07:43:55;12.10;;;5.35;;
36963;SDS011;22878;48.616;35.326;2022-08-01T07:46:21;14.35;;;5.53;;
36963;SDS011;22878;48.616;35.326;2022-08-01T07:48:49;16.27;;;5.30;;
36963;SDS011;22878;48.616;35.326;2022-08-01T07:53:43;11.22;;;4.35;;
36963;SDS011;22878;48.616;35.326;2022-08-01T07:56:09;13.48;;;4.90;;
36963;SDS011;22878;48.616;35.326;2022-08-01T07:58:41;12.47;;;5.08;;
36963;SDS011;22878;48.616;35.326;2022-08-01T08:01:07;9.10;;;4.65;;
36963;SDS011;22878;48.616;35.326;2022-08-01T08:03:33;11.48;;;5.12;;
36963;SDS011;22878;48.616;35.326;2022-08-01T08:06:02;11.33;;;5.15;;
36963;SDS011;22878;48.616;35.326;2022-08-01T08:08:30;11.30;;;5.42;;
36963;SDS011;22878;48.616;35.326;2022-08-01T08:10:56;10.55;;;5.58;;
36963;SDS011;22878;48.616;35.326;2022-08-01T08:13:23;8.80;;;5.37;;
36963;SDS011;22878;48.616;35.326;2022-08-01T08:15:49;14.75;;;5.50;;
36963;SDS011;22878;48.616;35.326;2022-08-01T08:18:15;14.05;;;5.55;;
36963;SDS011;22878;48.616;35.326;2022-08-01T08:20:44;9.80;;;5.35;;
36963;SDS011;22878;48.616;35.326;2022-08-01T08:23:10;11.30;;;5.37;;
36963;SDS011;22878;48.616;35.326;2022-08-01T08:25:55;9.85;;;5.70;;
36963;SDS011;22878;48.616;35.326;2022-08-01T08:28:21;13.93;;;5.78;;
36963;SDS011;22878;48.616;35.326;2022-08-01T08:30:47;10.32;;;6.17;;
36963;SDS011;22878;48.616;35.326;2022-08-01T08:33:15;14.95;;;6.78;;
36963;SDS011;22878;48.616;35.326;2022-08-01T08:35:41;9.83;;;5.30;;
36963;SDS011;22878;48.616;35.326;2022-08-01T08:38:07;13.60;;;5.60;;
36963;SDS011;22878;48.616;35.326;2022-08-01T08:40:34;11.38;;;5.25;;
36963;SDS011;22878;48.616;35.326;2022-08-01T08:43:03;10.68;;;5.20;;
36963;SDS011;22878;48.616;35.326;2022-08-01T08:45:36;8.43;;;4.72;;
36963;SDS011;22878;48.616;35.326;2022-08-01T08:48:03;8.35;;;4.78;;
36963;SDS011;22878;48.616;35.326;2022-08-01T08:50:31;7.37;;;4.37;;
36963;SDS011;22878;48.616;35.326;2022-08-01T08:53:01;9.78;;;4.90;;
36963;SDS011;22878;48.616;35.326;2022-08-01T08:55:29;13.98;;;5.05;;
36963;SDS011;22878;48.616;35.326;2022-08-01T08:57:55;12.65;;;4.78;;
36963;SDS011;22878;48.616;35.326;2022-08-01T09:00:22;10.58;;;5.00;;
36963;SDS011;22878;48.616;35.326;2022-08-01T09:02:49;10.10;;;5.08;;
36963;SDS011;22878;48.616;35.326;2022-08-01T09:05:19;12.58;;;4.70;;
36963;SDS011;22878;48.616;35.326;2022-08-01T09:10:18;12.35;;;5.50;;
36963;SDS011;22878;48.616;35.326;2022-08-01T09:13:04;11.55;;;4.80;;
36963;SDS011;22878;48.616;35.326;2022-08-01T09:18:35;10.53;;;5.72;;
36963;SDS011;22878;48.616;35.326;2022-08-01T09:21:09;11.05;;;5.12;;
36963;SDS011;22878;48.616;35.326;2022-08-01T09:23:46;9.78;;;5.47;;
36963;SDS011;22878;48.616;35.326;2022-08-01T09:26:20;12.55;;;5.90;;
36963;SDS011;22878;48.616;35.326;2022-08-01T09:28:58;10.03;;;5.08;;
36963;SDS011;22878;48.616;35.326;2022-08-01T09:31:29;11.60;;;5.53;;
36963;SDS011;22878;48.616;35.326;2022-08-01T09:33:59;12.70;;;5.42;;
36963;SDS011;22878;48.616;35.326;2022-08-01T09:39:23;9.28;;;6.00;;
36963;SDS011;22878;48.616;35.326;2022-08-01T09:41:52;14.78;;;5.45;;
36963;SDS011;22878;48.616;35.326;2022-08-01T09:44:36;16.42;;;5.95;;
36963;SDS011;22878;48.616;35.326;2022-08-01T09:47:07;16.40;;;6.37;;
36963;SDS011;22878;48.616;35.326;2022-08-01T09:49:34;16.10;;;5.90;;
36963;SDS011;22878;48.616;35.326;2022-08-01T09:55:00;13.03;;;6.72;;
36963;SDS011;22878;48.616;35.326;2022-08-01T09:57:30;13.48;;;5.67;;
36963;SDS011;22878;48.616;35.326;2022-08-01T10:00:00;12.10;;;5.95;;
36963;SDS011;22878;48.616;35.326;2022-08-01T10:05:03;14.30;;;6.25;;
36963;SDS011;22878;48.616;35.326;2022-08-01T10:07:33;10.63;;;6.00;;
36963;SDS011;22878;48.616;35.326;2022-08-01T10:10:13;12.13;;;6.37;;
36963;SDS011;22878;48.616;35.326;2022-08-01T10:12:41;14.45;;;6.35;;
36963;SDS011;22878;48.616;35.326;2022-08-01T10:15:08;14.47;;;6.70;;
36963;SDS011;22878;48.616;35.326;2022-08-01T10:17:38;19.65;;;6.90;;
36963;SDS011;22878;48.616;35.326;2022-08-01T10:20:06;11.93;;;6.87;;
36963;SDS011;22878;48.616;35.326;2022-08-01T10:22:33;18.95;;;7.75;;
36963;SDS011;22878;48.616;35.326;2022-08-01T10:25:02;13.03;;;6.42;;
36963;SDS011;22878;48.616;35.326;2022-08-01T10:27:30;15.08;;;6.70;;
36963;SDS011;22878;48.616;35.326;2022-08-01T10:30:00;13.85;;;6.72;;
36963;SDS011;22878;48.616;35.326;2022-08-01T10:32:34;14.98;;;7.03;;
36963;SDS011;22878;48.616;35.326;2022-08-01T10:37:34;14.80;;;7.28;;
36963;SDS011;22878;48.616;35.326;2022-08-01T10:40:03;15.98;;;6.83;;
36963;SDS011;22878;48.616;35.326;2022-08-01T10:45:11;17.48;;;7.37;;
36963;SDS011;22878;48.616;35.326;2022-08-01T10:48:00;20.02;;;7.50;;
36963;SDS011;22878;48.616;35.326;2022-08-01T10:50:46;15.70;;;7.00;;
36963;SDS011;22878;48.616;35.326;2022-08-01T10:53:19;16.30;;;6.72;;
36963;SDS011;22878;48.616;35.326;2022-08-01T10:58:27;15.72;;;6.85;;
36963;SDS011;22878;48.616;35.326;2022-08-01T11:01:25;19.37;;;7.58;;
36963;SDS011;22878;48.616;35.326;2022-08-01T11:11:57;15.80;;;7.72;;
36963;SDS011;22878;48.616;35.326;2022-08-01T11:14:27;21.35;;;8.13;;
36963;SDS011;22878;48.616;35.326;2022-08-01T11:16:54;16.37;;;7.72;;
36963;SDS011;22878;48.616;35.326;2022-08-01T11:19:21;19.80;;;8.85;;
36963;SDS011;22878;48.616;35.326;2022-08-01T11:22:00;18.92;;;9.48;;
36963;SDS011;22878;48.616;35.326;2022-08-01T11:35:13;17.07;;;8.43;;
36963;SDS011;22878;48.616;35.326;2022-08-01T11:37:40;15.08;;;8.13;;
36963;SDS011;22878;48.616;35.326;2022-08-01T11:40:19;18.40;;;8.63;;
36963;SDS011;22878;48.616;35.326;2022-08-01T11:42:51;15.68;;;8.53;;
36963;SDS011;22878;48.616;35.326;2022-08-01T11:45:51;23.45;;;8.98;;
36963;SDS011;22878;48.616;35.326;2022-08-01T11:48:21;23.92;;;8.55;;
36963;SDS011;22878;48.616;35.326;2022-08-01T11:50:50;21.85;;;10.10;;
36963;SDS011;22878;48.616;35.326;2022-08-01T11:53:22;17.50;;;8.60;;
36963;SDS011;22878;48.616;35.326;2022-08-01T11:55:50;20.65;;;8.88;;
36963;SDS011;22878;48.616;35.326;2022-08-01T11:58:22;20.15;;;9.20;;
36963;SDS011;22878;48.616;35.326;2022-08-01T12:05:53;23.35;;;10.55;;
36963;SDS011;22878;48.616;35.326;2022-08-01T12:10:54;17.20;;;8.38;;
36963;SDS011;22878;48.616;35.326;2022-08-01T12:13:20;16.45;;;9.28;;
36963;SDS011;22878;48.616;35.326;2022-08-01T12:15:48;20.85;;;9.98;;
36963;SDS011;22878;48.616;35.326;2022-08-01T12:18:15;22.07;;;9.63;;
36963;SDS011;22878;48.616;35.326;2022-08-01T12:20:43;22.52;;;10.10;;
36963;SDS011;22878;48.616;35.326;2022-08-01T12:23:14;24.52;;;10.88;;
36963;SDS011;22878;48.616;35.326;2022-08-01T12:25:41;25.25;;;10.20;;
36963;SDS011;22878;48.616;35.326;2022-08-01T12:28:10;20.65;;;9.90;;
36963;SDS011;22878;48.616;35.326;2022-08-01T12:30:40;23.12;;;9.73;;
36963;SDS011;22878;48.616;35.326;2022-08-01T12:33:09;21.62;;;9.35;;
36963;SDS011;22878;48.616;35.326;2022-08-01T12:35:47;22.52;;;10.05;;
36963;SDS011;22878;48.616;35.326;2022-08-01T12:38:20;22.13;;;10.63;;
36963;SDS011;22878;48.616;35.326;2022-08-01T12:40:48;23.60;;;10.53;;
36963;SDS011;22878;48.616;35.326;2022-08-01T12:43:16;24.30;;;10.43;;
36963;SDS011;22878;48.616;35.326;2022-08-01T12:45:46;24.75;;;10.68;;
36963;SDS011;22878;48.616;35.326;2022-08-01T12:48:15;23.92;;;10.93;;
36963;SDS011;22878;48.616;35.326;2022-08-01T12:50:44;21.62;;;9.68;;
36963;SDS011;22878;48.616;35.326;2022-08-01T12:53:13;26.30;;;11.53;;
36963;SDS011;22878;48.616;35.326;2022-08-01T12:55:44;22.50;;;11.30;;
36963;SDS011;22878;48.616;35.326;2022-08-01T12:58:21;32.38;;;12.23;;
36963;SDS011;22878;48.616;35.326;2022-08-01T13:00:49;25.88;;;11.83;;
36963;SDS011;22878;48.616;35.326;2022-08-01T13:03:19;27.07;;;11.95;;
36963;SDS011;22878;48.616;35.326;2022-08-01T13:05:56;30.27;;;12.13;;
36963;SDS011;22878;48.616;35.326;2022-08-01T13:08:31;25.32;;;11.53;;
36963;SDS011;22878;48.616;35.326;2022-08-01T13:11:03;25.90;;;11.78;;
36963;SDS011;22878;48.616;35.326;2022-08-01T13:13:39;24.98;;;12.00;;
36963;SDS011;22878;48.616;35.326;2022-08-01T13:16:08;24.75;;;12.20;;
36963;SDS011;22878;48.616;35.326;2022-08-01T13:18:36;25.70;;;10.68;;
36963;SDS011;22878;48.616;35.326;2022-08-01T13:21:09;23.35;;;12.00;;
36963;SDS011;22878;48.616;35.326;2022-08-01T13:24:01;23.35;;;10.90;;
36963;SDS011;22878;48.616;35.326;2022-08-01T13:26:38;25.75;;;11.38;;
36963;SDS011;22878;48.616;35.326;2022-08-01T13:29:21;24.45;;;11.93;;
36963;SDS011;22878;48.616;35.326;2022-08-01T13:31:57;24.82;;;11.55;;
36963;SDS011;22878;48.616;35.326;2022-08-01T13:36:59;23.92;;;11.63;;
36963;SDS011;22878;48.616;35.326;2022-08-01T13:39:29;24.60;;;11.70;;
36963;SDS011;22878;48.616;35.326;2022-08-01T13:42:10;25.57;;;11.43;;
36963;SDS011;22878;48.616;35.326;2022-08-01T13:44:40;22.35;;;12.43;;
36963;SDS011;22878;48.616;35.326;2022-08-01T13:47:07;24.23;;;12.07;;
36963;SDS011;22878;48.616;35.326;2022-08-01T13:49:33;27.32;;;13.25;;
36963;SDS011;22878;48.616;35.326;2022-08-01T13:52:00;25.57;;;12.13;;
36963;SDS011;22878;48.616;35.326;2022-08-01T13:54:28;28.90;;;12.35;;
36963;SDS011;22878;48.616;35.326;2022-08-01T13:56:54;28.05;;;12.25;;
36963;SDS011;22878;48.616;35.326;2022-08-01T13:59:21;35.85;;;13.30;;
36963;SDS011;22878;48.616;35.326;2022-08-01T14:01:49;30.08;;;12.50;;
36963;SDS011;22878;48.616;35.326;2022-08-01T14:04:15;26.40;;;12.98;;
36963;SDS011;22878;48.616;35.326;2022-08-01T14:06:42;28.38;;;12.80;;
36963;SDS011;22878;48.616;35.326;2022-08-01T14:09:10;24.87;;;13.32;;
36963;SDS011;22878;48.616;35.326;2022-08-01T14:11:37;27.07;;;13.72;;
36963;SDS011;22878;48.616;35.326;2022-08-01T14:14:03;29.92;;;13.43;;
36963;SDS011;22878;48.616;35.326;2022-08-01T14:16:30;30.12;;;13.62;;
36963;SDS011;22878;48.616;35.326;2022-08-01T14:18:58;30.52;;;13.68;;
36963;SDS011;22878;48.616;35.326;2022-08-01T14:21:24;27.80;;;13.40;;
36963;SDS011;22878;48.616;35.326;2022-08-01T14:23:50;32.08;;;14.30;;
36963;SDS011;22878;48.616;35.326;2022-08-01T14:26:16;27.98;;;13.78;;
36963;SDS011;22878;48.616;35.326;2022-08-01T14:28:42;25.00;;;13.30;;
36963;SDS011;22878;48.616;35.326;2022-08-01T14:31:09;30.48;;;13.68;;
36963;SDS011;22878;48.616;35.326;2022-08-01T14:33:35;30.00;;;13.58;;
36963;SDS011;22878;48.616;35.326;2022-08-01T14:36:01;28.38;;;14.18;;
36963;SDS011;22878;48.616;35.326;2022-08-01T14:38:28;31.33;;;14.00;;
36963;SDS011;22878;48.616;35.326;2022-08-01T14:40:54;25.10;;;13.53;;
36963;SDS011;22878;48.616;35.326;2022-08-01T14:43:21;28.90;;;13.80;;
36963;SDS011;22878;48.616;35.326;2022-08-01T14:45:48;34.33;;;14.45;;
36963;SDS011;22878;48.616;35.326;2022-08-01T14:48:16;30.50;;;14.98;;
36963;SDS011;22878;48.616;35.326;2022-08-01T14:50:43;32.63;;;15.85;;
36963;SDS011;22878;48.616;35.326;2022-08-01T14:53:09;30.30;;;14.65;;
36963;SDS011;22878;48.616;35.326;2022-08-01T14:55:36;29.75;;;14.87;;
36963;SDS011;22878;48.616;35.326;2022-08-01T14:58:02;32.38;;;15.58;;
36963;SDS011;22878;48.616;35.326;2022-08-01T15:00:28;29.35;;;15.63;;
36963;SDS011;22878;48.616;35.326;2022-08-01T15:02:55;33.30;;;16.42;;
36963;SDS011;22878;48.616;35.326;2022-08-01T15:05:21;37.63;;;17.32;;
36963;SDS011;22878;48.616;35.326;2022-08-01T15:07:47;33.90;;;16.37;;
36963;SDS011;22878;48.616;35.326;2022-08-01T15:10:13;43.90;;;18.70;;
36963;SDS011;22878;48.616;35.326;2022-08-01T15:12:41;40.75;;;18.17;;
36963;SDS011;22878;48.616;35.326;2022-08-01T15:15:08;37.35;;;17.00;;
36963;SDS011;22878;48.616;35.326;2022-08-01T15:17:35;37.38;;;17.27;;
36963;SDS011;22878;48.616;35.326;2022-08-01T15:20:05;40.45;;;17.12;;
36963;SDS011;22878;48.616;35.326;2022-08-01T15:22:33;39.92;;;17.77;;
36963;SDS011;22878;48.616;35.326;2022-08-01T15:25:00;38.67;;;17.90;;
36963;SDS011;22878;48.616;35.326;2022-08-01T15:27:28;36.08;;;17.37;;
36963;SDS011;22878;48.616;35.326;2022-08-01T15:29:55;38.55;;;17.07;;
36963;SDS011;22878;48.616;35.326;2022-08-01T15:32:22;35.25;;;16.65;;
36963;SDS011;22878;48.616;35.326;2022-08-01T15:34:51;40.95;;;17.90;;
36963;SDS011;22878;48.616;35.326;2022-08-01T15:37:18;42.75;;;17.25;;
36963;SDS011;22878;48.616;35.326;2022-08-01T15:39:44;46.02;;;17.50;;
36963;SDS011;22878;48.616;35.326;2022-08-01T15:42:14;38.83;;;16.57;;
36963;SDS011;22878;48.616;35.326;2022-08-01T15:44:42;39.48;;;18.07;;
36963;SDS011;22878;48.616;35.326;2022-08-01T15:47:09;39.65;;;18.75;;
36963;SDS011;22878;48.616;35.326;2022-08-01T15:49:36;40.75;;;17.62;;